WIF9AK ENHV-ENTC
Flight info
| Callsign | WIF9AK |
|---|---|
| Flight time | 0h 36m |
| Altitude | 22000 |
| Route | HMF DCT DIBDI |
| Aircraft | DH8B/M-SDFGR/S |
Departure
| Time | 2026-04-14 11:27 |
|---|---|
| Airport | Honningsvåg Airport, Valan (ENHV) |
Arrival
| Time | 2026-04-14 12:04 |
|---|---|
| Airport | Tromsø Airport (ENTC) |
| Time | Latitude | Longitude | Altitude | Speed | Heading |
|---|---|---|---|---|---|
| 2026-04-14 11:21 | 71.00902 | 25.97924 | 33 ft | 0 kts | 89° |
| 2026-04-14 11:25 | 71.00902 | 25.97934 | 33 ft | 4 kts | 88° |
| 2026-04-14 11:25 | 71.00960 | 25.97989 | 31 ft | 6 kts | 11° |
| 2026-04-14 11:26 | 71.00968 | 25.98236 | 33 ft | 26 kts | 96° |
| 2026-04-14 11:26 | 71.00968 | 25.98784 | 40 ft | 23 kts | 85° |
| 2026-04-14 11:26 | 71.00969 | 25.99257 | 48 ft | 22 kts | 92° |
| 2026-04-14 11:26 | 71.00963 | 25.99641 | 49 ft | 9 kts | 53° |
| 2026-04-14 11:27 | 71.00966 | 25.99544 | 50 ft | 5 kts | 269° |
| 2026-04-14 11:27 | 71.00967 | 25.99084 | 46 ft | 77 kts | 270° |
| 2026-04-14 11:27 | 71.00974 | 25.96570 | 239 ft | 138 kts | 270° |
| 2026-04-14 11:27 | 71.01025 | 25.93489 | 962 ft | 148 kts | 272° |
| 2026-04-14 11:28 | 71.01103 | 25.90143 | 1528 ft | 169 kts | 267° |
| 2026-04-14 11:28 | 71.00677 | 25.86766 | 2083 ft | 182 kts | 225° |
| 2026-04-14 11:28 | 70.99575 | 25.84804 | 2827 ft | 184 kts | 206° |
| 2026-04-14 11:28 | 70.98631 | 25.82288 | 3573 ft | 187 kts | 242° |
| 2026-04-14 11:29 | 70.98236 | 25.78471 | 4356 ft | 191 kts | 257° |
| 2026-04-14 11:29 | 70.97862 | 25.74462 | 5111 ft | 196 kts | 250° |
| 2026-04-14 11:29 | 70.97345 | 25.70642 | 5875 ft | 193 kts | 247° |
| 2026-04-14 11:29 | 70.96844 | 25.66691 | 6441 ft | 204 kts | 251° |
| 2026-04-14 11:30 | 70.96345 | 25.62547 | 6986 ft | 209 kts | 249° |
| 2026-04-14 11:30 | 70.95792 | 25.58377 | 7527 ft | 213 kts | 249° |
| 2026-04-14 11:30 | 70.95260 | 25.54106 | 8076 ft | 216 kts | 250° |
| 2026-04-14 11:30 | 70.94711 | 25.49773 | 8643 ft | 221 kts | 249° |
| 2026-04-14 11:31 | 70.94143 | 25.45403 | 9195 ft | 221 kts | 249° |
| 2026-04-14 11:31 | 70.93583 | 25.41010 | 9767 ft | 223 kts | 249° |
| 2026-04-14 11:31 | 70.93016 | 25.36574 | 10333 ft | 224 kts | 249° |
| 2026-04-14 11:31 | 70.92437 | 25.32108 | 10857 ft | 226 kts | 249° |
| 2026-04-14 11:32 | 70.91870 | 25.27682 | 11365 ft | 228 kts | 249° |
| 2026-04-14 11:32 | 70.91283 | 25.23168 | 11894 ft | 229 kts | 248° |
| 2026-04-14 11:32 | 70.90689 | 25.18643 | 12418 ft | 230 kts | 249° |
| 2026-04-14 11:32 | 70.90105 | 25.14084 | 12953 ft | 231 kts | 249° |
| 2026-04-14 11:33 | 70.89503 | 25.09527 | 13493 ft | 233 kts | 248° |
| 2026-04-14 11:33 | 70.88901 | 25.04921 | 14047 ft | 234 kts | 248° |
| 2026-04-14 11:33 | 70.88296 | 25.00271 | 14568 ft | 237 kts | 248° |
| 2026-04-14 11:34 | 70.87063 | 24.90935 | 15560 ft | 238 kts | 248° |
| 2026-04-14 11:34 | 70.86444 | 24.86243 | 16068 ft | 239 kts | 248° |
| 2026-04-14 11:34 | 70.85822 | 24.81545 | 16591 ft | 239 kts | 248° |
| 2026-04-14 11:34 | 70.85195 | 24.76828 | 17114 ft | 240 kts | 247° |
| 2026-04-14 11:35 | 70.84565 | 24.72108 | 17643 ft | 241 kts | 247° |
| 2026-04-14 11:35 | 70.83935 | 24.67376 | 18185 ft | 241 kts | 247° |
| 2026-04-14 11:35 | 70.83301 | 24.62637 | 18727 ft | 242 kts | 247° |
| 2026-04-14 11:35 | 70.82659 | 24.57877 | 19213 ft | 244 kts | 247° |
| 2026-04-14 11:36 | 70.82019 | 24.53083 | 19694 ft | 245 kts | 247° |
| 2026-04-14 11:36 | 70.81369 | 24.48302 | 20184 ft | 245 kts | 247° |
| 2026-04-14 11:36 | 70.80718 | 24.43483 | 20678 ft | 247 kts | 247° |
| 2026-04-14 11:36 | 70.80067 | 24.38661 | 21176 ft | 247 kts | 246° |
| 2026-04-14 11:37 | 70.79404 | 24.33810 | 21686 ft | 249 kts | 246° |
| 2026-04-14 11:37 | 70.78749 | 24.28995 | 22193 ft | 251 kts | 246° |
| 2026-04-14 11:37 | 70.78075 | 24.24027 | 22479 ft | 261 kts | 246° |
| 2026-04-14 11:37 | 70.77360 | 24.18801 | 22522 ft | 274 kts | 246° |
| 2026-04-14 11:38 | 70.76619 | 24.13361 | 22530 ft | 284 kts | 247° |
| 2026-04-14 11:38 | 70.75849 | 24.07759 | 22534 ft | 290 kts | 246° |
| 2026-04-14 11:38 | 70.75062 | 24.02081 | 22535 ft | 294 kts | 246° |
| 2026-04-14 11:38 | 70.74271 | 23.96334 | 22536 ft | 297 kts | 246° |
| 2026-04-14 11:39 | 70.73469 | 23.90540 | 22536 ft | 299 kts | 246° |
| 2026-04-14 11:39 | 70.72663 | 23.84725 | 22531 ft | 299 kts | 246° |
| 2026-04-14 11:39 | 70.71854 | 23.78927 | 22528 ft | 299 kts | 246° |
| 2026-04-14 11:39 | 70.71044 | 23.73135 | 22527 ft | 299 kts | 246° |
| 2026-04-14 11:40 | 70.70193 | 23.67411 | 22507 ft | 298 kts | 239° |
| 2026-04-14 11:40 | 70.69029 | 23.62363 | 22524 ft | 297 kts | 235° |
| 2026-04-14 11:40 | 70.67864 | 23.57220 | 22519 ft | 297 kts | 237° |
| 2026-04-14 11:40 | 70.66754 | 23.51963 | 22519 ft | 297 kts | 238° |
| 2026-04-14 11:41 | 70.65632 | 23.46728 | 22521 ft | 297 kts | 237° |
| 2026-04-14 11:41 | 70.64501 | 23.41534 | 22515 ft | 296 kts | 237° |
| 2026-04-14 11:41 | 70.63367 | 23.36346 | 22516 ft | 296 kts | 237° |
| 2026-04-14 11:41 | 70.62228 | 23.31167 | 22516 ft | 297 kts | 237° |
| 2026-04-14 11:42 | 70.61086 | 23.25996 | 22513 ft | 297 kts | 237° |
| 2026-04-14 11:42 | 70.59945 | 23.20831 | 22513 ft | 296 kts | 237° |
| 2026-04-14 11:42 | 70.58804 | 23.15679 | 22512 ft | 296 kts | 236° |
| 2026-04-14 11:42 | 70.57659 | 23.10523 | 22514 ft | 296 kts | 236° |
| 2026-04-14 11:43 | 70.56516 | 23.05390 | 22517 ft | 296 kts | 236° |
| 2026-04-14 11:43 | 70.55371 | 23.00257 | 22511 ft | 296 kts | 236° |
| 2026-04-14 11:43 | 70.54227 | 22.95141 | 22512 ft | 295 kts | 236° |
| 2026-04-14 11:43 | 70.53080 | 22.90024 | 22511 ft | 296 kts | 236° |
| 2026-04-14 11:44 | 70.51931 | 22.84909 | 22506 ft | 295 kts | 236° |
| 2026-04-14 11:44 | 70.50783 | 22.79809 | 22501 ft | 295 kts | 236° |
| 2026-04-14 11:44 | 70.49631 | 22.74716 | 22499 ft | 295 kts | 236° |
| 2026-04-14 11:44 | 70.48481 | 22.69635 | 22499 ft | 295 kts | 236° |
| 2026-04-14 11:45 | 70.47329 | 22.64552 | 22502 ft | 295 kts | 236° |
| 2026-04-14 11:45 | 70.46177 | 22.59486 | 22501 ft | 295 kts | 236° |
| 2026-04-14 11:45 | 70.45020 | 22.54412 | 22500 ft | 295 kts | 236° |
| 2026-04-14 11:45 | 70.43879 | 22.49419 | 22497 ft | 295 kts | 236° |
| 2026-04-14 11:46 | 70.42723 | 22.44372 | 22497 ft | 295 kts | 236° |
| 2026-04-14 11:46 | 70.41566 | 22.39332 | 22496 ft | 295 kts | 236° |
| 2026-04-14 11:46 | 70.40406 | 22.34295 | 22497 ft | 295 kts | 236° |
| 2026-04-14 11:46 | 70.39246 | 22.29264 | 22502 ft | 295 kts | 236° |
| 2026-04-14 11:47 | 70.38082 | 22.24236 | 22502 ft | 295 kts | 236° |
| 2026-04-14 11:47 | 70.36919 | 22.19219 | 22498 ft | 294 kts | 236° |
| 2026-04-14 11:47 | 70.35755 | 22.14211 | 22500 ft | 294 kts | 235° |
| 2026-04-14 11:47 | 70.34589 | 22.09205 | 22498 ft | 294 kts | 235° |
| 2026-04-14 11:48 | 70.33423 | 22.04213 | 22497 ft | 294 kts | 235° |
| 2026-04-14 11:48 | 70.32254 | 21.99219 | 22501 ft | 294 kts | 235° |
| 2026-04-14 11:48 | 70.31084 | 21.94241 | 22510 ft | 294 kts | 235° |
| 2026-04-14 11:48 | 70.29913 | 21.89258 | 22499 ft | 295 kts | 235° |
| 2026-04-14 11:49 | 70.28741 | 21.84282 | 22493 ft | 294 kts | 235° |
| 2026-04-14 11:49 | 70.27585 | 21.79393 | 22496 ft | 294 kts | 235° |
| 2026-04-14 11:49 | 70.26410 | 21.74434 | 22495 ft | 294 kts | 235° |
| 2026-04-14 11:49 | 70.25236 | 21.69490 | 22493 ft | 294 kts | 235° |
| 2026-04-14 11:50 | 70.24057 | 21.64537 | 22492 ft | 295 kts | 234° |
| 2026-04-14 11:50 | 70.22879 | 21.59599 | 22488 ft | 294 kts | 235° |
| 2026-04-14 11:50 | 70.21700 | 21.54676 | 22489 ft | 294 kts | 234° |
| 2026-04-14 11:51 | 70.19335 | 21.44817 | 22491 ft | 294 kts | 234° |
| 2026-04-14 11:51 | 70.18150 | 21.39913 | 22487 ft | 293 kts | 234° |
| 2026-04-14 11:51 | 70.16967 | 21.35019 | 22488 ft | 293 kts | 235° |
| 2026-04-14 11:51 | 70.15781 | 21.30115 | 22491 ft | 294 kts | 234° |
| 2026-04-14 11:52 | 70.14610 | 21.25279 | 22484 ft | 293 kts | 234° |
| 2026-04-14 11:52 | 70.13426 | 21.20404 | 22483 ft | 293 kts | 234° |
| 2026-04-14 11:52 | 70.12243 | 21.15534 | 22488 ft | 293 kts | 234° |
| 2026-04-14 11:52 | 70.11056 | 21.10664 | 22485 ft | 293 kts | 234° |
| 2026-04-14 11:53 | 70.09865 | 21.05788 | 22484 ft | 293 kts | 234° |
| 2026-04-14 11:53 | 70.08679 | 21.00941 | 22489 ft | 292 kts | 234° |
| 2026-04-14 11:53 | 70.07490 | 20.96101 | 22486 ft | 293 kts | 234° |
| 2026-04-14 11:53 | 70.06301 | 20.91258 | 22489 ft | 292 kts | 234° |
| 2026-04-14 11:54 | 70.05110 | 20.86423 | 22487 ft | 292 kts | 234° |
| 2026-04-14 11:54 | 70.03917 | 20.81605 | 22489 ft | 292 kts | 234° |
| 2026-04-14 11:54 | 70.02805 | 20.77055 | 22186 ft | 259 kts | 234° |
| 2026-04-14 11:54 | 70.01799 | 20.72933 | 21375 ft | 240 kts | 234° |
| 2026-04-14 11:55 | 70.00860 | 20.69150 | 20562 ft | 226 kts | 233° |
| 2026-04-14 11:55 | 69.99957 | 20.65538 | 19744 ft | 215 kts | 236° |
| 2026-04-14 11:55 | 69.99431 | 20.61542 | 18980 ft | 210 kts | 255° |
| 2026-04-14 11:55 | 69.99347 | 20.57321 | 18117 ft | 209 kts | 270° |
| 2026-04-14 11:56 | 69.99512 | 20.53142 | 17222 ft | 204 kts | 268° |
| 2026-04-14 11:56 | 69.99582 | 20.49033 | 16358 ft | 202 kts | 267° |
| 2026-04-14 11:56 | 69.99657 | 20.44948 | 15530 ft | 201 kts | 268° |
| 2026-04-14 11:56 | 69.99735 | 20.40884 | 14720 ft | 200 kts | 268° |
| 2026-04-14 11:57 | 69.99838 | 20.36827 | 13896 ft | 200 kts | 269° |
| 2026-04-14 11:57 | 69.99936 | 20.32784 | 13046 ft | 199 kts | 269° |
| 2026-04-14 11:57 | 69.99840 | 20.28820 | 12201 ft | 193 kts | 253° |
| 2026-04-14 11:57 | 69.99385 | 20.25178 | 11402 ft | 190 kts | 244° |
| 2026-04-14 11:58 | 69.98844 | 20.21729 | 10846 ft | 191 kts | 243° |
| 2026-04-14 11:58 | 69.98233 | 20.18008 | 10322 ft | 204 kts | 243° |
| 2026-04-14 11:58 | 69.95689 | 20.02812 | 8858 ft | 215 kts | 243° |
| 2026-04-14 11:58 | 69.92989 | 19.86862 | 8015 ft | 226 kts | 243° |
| 2026-04-14 11:59 | 69.90168 | 19.70376 | 7175 ft | 229 kts | 243° |
| 2026-04-14 11:59 | 69.87291 | 19.53835 | 6209 ft | 229 kts | 243° |
| 2026-04-14 11:59 | 69.85442 | 19.43248 | 5600 ft | 229 kts | 243° |
| 2026-04-14 11:59 | 69.84595 | 19.39352 | 5341 ft | 227 kts | 234° |
| 2026-04-14 12:00 | 69.83971 | 19.36914 | 5058 ft | 225 kts | 233° |
| 2026-04-14 12:00 | 69.83096 | 19.33554 | 4535 ft | 196 kts | 233° |
| 2026-04-14 12:00 | 69.82272 | 19.30439 | 4228 ft | 203 kts | 232° |
| 2026-04-14 12:00 | 69.79027 | 19.18153 | 3261 ft | 224 kts | 233° |
| 2026-04-14 12:01 | 69.77044 | 19.10614 | 2993 ft | 211 kts | 232° |
| 2026-04-14 12:01 | 69.76195 | 19.07372 | 2707 ft | 190 kts | 232° |
| 2026-04-14 12:01 | 69.75401 | 19.04522 | 2385 ft | 176 kts | 228° |
| 2026-04-14 12:01 | 69.74597 | 19.01996 | 2034 ft | 164 kts | 224° |
| 2026-04-14 12:02 | 69.73822 | 18.99746 | 1602 ft | 160 kts | 224° |
| 2026-04-14 12:02 | 69.73045 | 18.97689 | 1328 ft | 143 kts | 220° |
| 2026-04-14 12:02 | 69.72278 | 18.96036 | 1069 ft | 130 kts | 213° |
| 2026-04-14 12:02 | 69.71500 | 18.94777 | 739 ft | 127 kts | 208° |
| 2026-04-14 12:03 | 69.70719 | 18.93704 | 495 ft | 121 kts | 202° |
| 2026-04-14 12:03 | 69.69921 | 18.92980 | 230 ft | 119 kts | 195° |
| 2026-04-14 12:03 | 69.69134 | 18.92423 | 35 ft | 112 kts | 194° |
| 2026-04-14 12:03 | 69.68493 | 18.91972 | 22 ft | 65 kts | 190° |
| 2026-04-14 12:04 | 69.68216 | 18.91804 | 25 ft | 20 kts | 193° |
| 2026-04-14 12:04 | 69.68081 | 18.91706 | 28 ft | 19 kts | 194° |
| 2026-04-14 12:04 | 69.68074 | 18.91463 | 29 ft | 14 kts | 282° |
| 2026-04-14 12:04 | 69.68070 | 18.91201 | 29 ft | 12 kts | 276° |
| 2026-04-14 12:05 | 69.68085 | 18.91010 | 32 ft | 8 kts | 284° |
| 2026-04-14 12:05 | 69.68089 | 18.90976 | 32 ft | 0 kts | 283° |